createdAt,value
2023-04-28T00:09:40.129Z,33.33
2023-04-28T00:14:45.932Z,31.95
2023-04-28T00:19:52.183Z,35.78
2023-04-28T00:24:57.896Z,36.67
2023-04-28T00:35:08.969Z,40.13
2023-04-28T00:40:14.872Z,33.75
2023-04-28T00:50:25.875Z,36.22
2023-04-28T00:55:36.919Z,34.25
2023-04-28T01:00:43.929Z,32.08
2023-04-28T01:05:50.686Z,35.20
2023-04-28T01:10:56.471Z,29.63
2023-04-28T01:16:22.115Z,32.33
2023-04-28T01:26:41.311Z,17.83
2023-04-28T01:31:47.455Z,12.00
2023-04-28T01:36:52.699Z,13.05
2023-04-28T01:41:58.132Z,19.67
2023-04-28T01:47:04.418Z,9.60
2023-04-28T01:52:13.350Z,20.23
2023-04-28T01:57:19.540Z,7.53
2023-04-28T02:02:27.973Z,14.85
2023-04-28T02:12:45.511Z,9.85
2023-04-28T02:17:58.093Z,19.30
2023-04-28T02:23:03.399Z,20.67
2023-04-28T02:28:11.032Z,21.70
2023-04-28T02:33:16.487Z,19.60
2023-04-28T02:38:21.656Z,14.23
2023-04-28T02:43:28.275Z,15.00
2023-04-28T02:48:36.900Z,19.58
2023-04-28T02:53:43.308Z,13.40
2023-04-28T03:03:54.380Z,20.27
2023-04-28T03:08:59.961Z,19.23
2023-04-28T03:14:05.513Z,15.77
2023-04-28T03:19:11.884Z,19.73
2023-04-28T03:24:20.167Z,18.17
2023-04-28T03:29:28.987Z,20.33
2023-04-28T03:34:35.018Z,9.93
2023-04-28T03:39:41.618Z,15.98
2023-04-28T03:44:47.383Z,13.77
2023-04-28T03:54:59.589Z,20.25
2023-04-28T04:00:07.098Z,14.80
2023-04-28T04:05:20.212Z,17.85
2023-04-28T04:10:26.173Z,11.85
2023-04-28T04:15:32.079Z,15.68
2023-04-28T04:20:42.313Z,12.95
2023-04-28T04:25:48.019Z,8.93
2023-04-28T04:30:53.615Z,15.65
2023-04-28T04:35:59.396Z,11.13
2023-04-28T04:41:05.141Z,14.15
2023-04-28T04:46:10.559Z,15.38
2023-04-28T04:51:16.991Z,10.10
2023-04-28T04:56:22.720Z,13.68
2023-04-28T05:01:28.584Z,14.65
2023-04-28T05:11:39.476Z,15.88
2023-04-28T05:16:45.340Z,17.77
2023-04-28T05:21:56.292Z,22.83
2023-04-28T05:27:03.556Z,15.45
2023-04-28T05:32:09.212Z,13.32
2023-04-28T05:37:14.844Z,17.75
2023-04-28T05:42:23.398Z,25.35
2023-04-28T05:47:29.256Z,16.83
2023-04-28T05:52:35.124Z,26.42
2023-04-28T05:57:49.794Z,24.27
2023-04-28T06:02:59.204Z,20.23
2023-04-28T06:08:04.996Z,14.30
2023-04-28T06:13:11.736Z,22.63
2023-04-28T06:18:19.866Z,25.40
2023-04-28T06:23:25.405Z,23.52
2023-04-28T06:28:31.503Z,16.13
2023-04-28T06:33:37.176Z,21.10
2023-04-28T06:38:44.693Z,24.20
2023-04-28T06:43:50.150Z,24.52
2023-04-28T06:49:04.867Z,22.63
2023-04-28T06:54:10.383Z,18.52
2023-04-28T06:59:16.455Z,12.65
2023-04-28T07:04:22.875Z,19.25
2023-04-28T07:09:29.843Z,13.38
2023-04-28T07:14:37.157Z,17.00
2023-04-28T07:19:43.035Z,20.20
2023-04-28T07:29:53.887Z,13.35
2023-04-28T07:34:59.251Z,21.60
2023-04-28T07:40:05.213Z,17.33
2023-04-28T07:50:18.618Z,23.08
2023-04-28T07:55:24.225Z,20.77
2023-04-28T08:00:29.614Z,21.80
2023-04-28T08:05:35.183Z,20.70
2023-04-28T08:15:51.299Z,17.50
2023-04-28T08:20:57.020Z,16.52
2023-04-28T08:31:07.751Z,16.30
2023-04-28T08:36:14.646Z,13.43
2023-04-28T08:41:21.428Z,11.15
2023-04-28T08:46:32.908Z,16.58
2023-04-28T08:51:46.518Z,19.88
2023-04-28T08:56:52.161Z,14.90
2023-04-28T09:01:58.456Z,17.85
2023-04-28T09:07:04.243Z,11.77
2023-04-28T09:17:18.014Z,10.73
2023-04-28T09:22:30.781Z,15.70
2023-04-28T09:27:36.633Z,16.88
2023-04-28T09:32:42.542Z,16.60
2023-04-28T09:42:56.749Z,16.92
2023-04-28T09:48:12.628Z,11.07
2023-04-28T09:53:19.339Z,11.73
2023-04-28T09:58:25.773Z,16.38
2023-04-28T10:03:33.354Z,15.90
2023-04-28T10:08:41.553Z,15.90
2023-04-28T10:13:47.532Z,15.82
2023-04-28T10:18:55.051Z,23.77
2023-04-28T10:24:17.645Z,17.85
2023-04-28T10:29:29.543Z,18.02
2023-04-28T10:34:34.918Z,16.73
2023-04-28T10:39:40.485Z,16.92
2023-04-28T10:44:46.075Z,9.57
2023-04-28T10:50:00.105Z,17.00
2023-04-28T10:55:38.981Z,17.27
2023-04-28T11:00:52.960Z,17.98
2023-04-28T11:06:21.589Z,15.43
2023-04-28T11:11:31.707Z,15.55
2023-04-28T11:16:55.571Z,16.38
2023-04-28T11:22:03.397Z,15.00
2023-04-28T11:27:09.099Z,10.57
2023-04-28T11:37:19.500Z,18.23
2023-04-28T11:47:34.897Z,18.98
2023-04-28T11:52:53.494Z,18.08
2023-04-28T11:58:23.715Z,12.80
2023-04-28T12:03:29.454Z,14.07
2023-04-28T12:08:35.273Z,14.48
2023-04-28T12:13:41.214Z,12.90
2023-04-28T12:19:01.625Z,14.55
2023-04-28T12:24:27.451Z,16.55
2023-04-28T12:29:43.805Z,17.08
2023-04-28T12:34:51.491Z,13.45
2023-04-28T12:39:57.295Z,13.93
2023-04-28T12:45:05.712Z,12.57
2023-04-28T12:56:37.379Z,11.63
2023-04-28T13:07:11.269Z,6.78
2023-04-28T13:12:17.171Z,7.57
2023-04-28T13:22:28.265Z,9.95
2023-04-28T13:32:41.734Z,6.72
2023-04-28T13:37:47.540Z,8.77
2023-04-28T13:42:56.056Z,6.20
2023-04-28T13:48:01.798Z,11.77
2023-04-28T13:58:13.143Z,7.87
2023-04-28T14:03:19.647Z,9.73
2023-04-28T14:08:27.763Z,9.20
2023-04-28T14:13:33.467Z,5.32
2023-04-28T14:18:39.227Z,7.13
2023-04-28T14:29:00.978Z,9.40
2023-04-28T14:34:10.124Z,5.90
2023-04-28T14:39:18.404Z,5.28
2023-04-28T14:44:24.001Z,7.40
2023-04-28T14:49:29.340Z,6.28
2023-04-28T14:54:34.952Z,7.95
2023-04-28T14:59:40.410Z,8.77
2023-04-28T15:04:49.680Z,7.97
2023-04-28T15:09:55.869Z,7.20
2023-04-28T15:15:01.395Z,11.68
2023-04-28T15:25:12.713Z,8.50
2023-04-28T15:30:19.010Z,6.72
2023-04-28T15:35:24.461Z,7.47
2023-04-28T15:40:30.149Z,11.05
2023-04-28T15:45:36.434Z,7.20
2023-04-28T15:50:42.789Z,13.13
2023-04-28T16:01:56.729Z,8.18
2023-04-28T16:07:04.349Z,4.40
2023-04-28T16:12:47.624Z,13.75
2023-04-28T16:17:39.960Z,12.90
2023-04-28T16:22:48.975Z,13.93
2023-04-28T16:27:57.250Z,15.32
2023-04-28T16:33:05.454Z,12.00
2023-04-28T16:38:10.834Z,7.72
2023-04-28T16:43:16.636Z,14.63
2023-04-28T16:53:28.264Z,16.33
2023-04-28T16:58:33.488Z,18.23
2023-04-28T17:03:42.771Z,15.37
2023-04-28T17:08:50.804Z,16.00
2023-04-28T17:13:56.253Z,18.85
2023-04-28T17:19:03.197Z,17.40
2023-04-28T17:24:10.263Z,17.85
2023-04-28T17:29:15.697Z,16.60
2023-04-28T17:34:29.844Z,17.13
2023-04-28T17:39:35.002Z,17.10
2023-04-28T17:44:40.399Z,15.67
2023-04-28T17:49:46.087Z,16.13
2023-04-28T17:54:52.479Z,16.20
2023-04-28T18:00:00.890Z,18.65
2023-04-28T18:05:19.027Z,19.70
2023-04-28T18:10:29.273Z,18.85
2023-04-28T18:15:41.555Z,18.00
2023-04-28T18:20:47.207Z,17.38
2023-04-28T18:25:52.584Z,17.67
2023-04-28T18:30:57.430Z,18.50
2023-04-28T18:36:08.604Z,18.40
2023-04-28T18:41:20.640Z,16.92
2023-04-28T18:46:26.917Z,17.45
2023-04-28T18:51:32.548Z,17.25
2023-04-28T19:01:44.516Z,17.77
2023-04-28T19:06:50.275Z,17.73
2023-04-28T19:11:55.753Z,18.15
2023-04-28T19:17:01.234Z,19.00
2023-04-28T19:22:06.820Z,17.92
2023-04-28T19:27:12.756Z,20.15
2023-04-28T19:32:18.479Z,16.25
2023-04-28T19:37:24.463Z,18.15
2023-04-28T19:42:29.928Z,21.52
2023-04-28T19:47:35.572Z,22.35
2023-04-28T19:52:41.020Z,22.20
2023-04-28T19:57:47.074Z,23.60
2023-04-28T20:02:52.906Z,19.50
2023-04-28T20:07:58.712Z,23.15
2023-04-28T20:13:06.030Z,20.58
2023-04-28T20:18:11.465Z,20.90
2023-04-28T20:23:17.438Z,20.42
2023-04-28T20:28:23.648Z,19.55
2023-04-28T20:33:28.726Z,20.27
2023-04-28T20:38:34.717Z,18.00
2023-04-28T20:43:40.484Z,20.63
2023-04-28T20:53:50.209Z,18.48
2023-04-28T20:58:58.918Z,17.87
2023-04-28T21:04:04.444Z,18.20
2023-04-28T21:09:10.017Z,17.35
2023-04-28T21:14:16.797Z,16.77
2023-04-28T21:19:22.513Z,17.92
2023-04-28T21:24:27.841Z,15.23
2023-04-28T21:29:33.816Z,19.88
2023-04-28T21:34:39.521Z,19.27
2023-04-28T21:39:45.775Z,19.00
2023-04-28T21:44:50.899Z,18.45
2023-04-28T21:49:56.139Z,19.73
2023-04-28T21:55:01.552Z,21.77
2023-04-28T22:00:07.787Z,26.20
2023-04-28T22:05:17.969Z,20.42
2023-04-28T22:10:25.024Z,23.35
2023-04-28T22:15:30.431Z,20.42
2023-04-28T22:20:35.854Z,22.25
2023-04-28T22:25:41.307Z,19.80
2023-04-28T22:30:49.292Z,22.42
2023-04-28T22:35:54.689Z,21.85
2023-04-28T22:41:00.144Z,22.33
2023-04-28T22:46:08.575Z,21.67
2023-04-28T22:51:14.548Z,22.80
2023-04-28T22:56:20.663Z,25.63
2023-04-28T23:06:31.156Z,23.27
2023-04-28T23:11:36.559Z,32.00
2023-04-28T23:16:42.702Z,27.75
2023-04-28T23:21:48.141Z,25.77
2023-04-28T23:26:54.534Z,28.60
2023-04-28T23:32:00.353Z,28.33
2023-04-28T23:37:05.696Z,23.10
2023-04-28T23:42:11.269Z,28.15
2023-04-28T23:47:16.901Z,25.77
2023-04-28T23:57:27.601Z,14.55
